KMYL

Details ICAO KMYL (MYL)
Name Mc Call Muni
Region United States
Timezone America/Boise (UTC-6.0)
Plans Departing 30
Arriving 26
Stats Elevation 5,020 ft / 1,530 m (AMSL)
Location 44.888700° -116.102000°
Runways 1
Magnetic Variation 13.486° E
Sunrise 2018-10-16 14:02:26 UTC / 2018-10-16 08:02:26 Local
Sunset 2018-10-17 00:59:41 UTC / 2018-10-16 18:59:41 Local
Advertisement - Login to hide

Runways

ID Width Length Bearing (true/mag) Surface Threshold Overrun Markings Lighting
16 75 ft / 23 m 6,113 ft / 1,863 m 178.61° / 165.12° ASPHALT 0 ft / 0 m 56 ft / 17 m APP EDGE THRESHOLD REIL-OMNI
34 75 ft / 23 m 6,113 ft / 1,863 m 358.61° / 345.12° ASPHALT 0 ft / 0 m 0 ft / 0 m APP EDGE THRESHOLD REIL-OMNI

Map

Weather


0- 5 10 15 20 25 30 35+ Temperature / °C

Clouds and Precipitation
Forecast for 2018-10-16 12:00 UTC. Updated an hour ago

Ground ~20,000 ft ~40,000 ft Winds

METAR

KMYL 160951Z AUTO 05003KT 10SM CLR M02/M04 A3037 RMK AO2 SLP290 T10171044

TAF

TAF KMYL 160520Z 1606/1706 VRB05KT P6SM SKC

Frequencies

Recorded 119.92 MHz ASOS
Unicom 122.80 MHz CTAF/UNICOM
Warning: Do not use this data for real-world aviation or navigation. No guarantee of current accuracy is given.